Chicago, Illinois
Traffic Map
Current Weather Conditions
Chicago, Illinois
Few Clouds
Few Clouds
50°
Feels Like: 50°
Wind Chill: 50° Ceiling: Unl
Heat Index: 50° Visibility: 10mi
Dew Point: 41° Wind: 3mph
Humidity: 71% Direction: 30° (NNE)
Pressure: 30.03in Gusts: 0mph
Raw Report DataKMDW 241253Z 03003KT 10SM FEW250 10/05 A3003 RMK AO2 SLP170 T01000050
Traffic Incident Summary
Active as of:
Severity:
Category:
InformationThere was an issue retrieving the traffic information for this location. Please try a different location or try again shortly.
Advertisements
Track Severe Weather on mobile